AFL38 UHMM-PANC
Flight info
| Callsign | AFL38 |
|---|---|
| Flight time | N/A |
| Altitude | 41000 |
| Route | MEBAR5D MEBAR B216 GINAN T454 BUSUL A827 BUMAT A828 GIRLO N222 VALDA/N0498F410 H222 SLEDD DCT WINOR KROTO5 |
| Aircraft | A359/H-SDE2E3GHIJ3J4J5LM1ORWXY/LB1D1 |
Departure
| Time | N/A |
|---|---|
| Airport | Sokol Airport (UHMM) |
Arrival
| Time | 2026-05-04 14:29 |
|---|---|
| Airport | Ted Stevens Anchorage International Airport (PANC) |
| Time | Latitude | Longitude | Altitude | Speed | Heading |
|---|---|---|---|---|---|
| 2026-05-04 13:42 | 63.35206 | -159.35918 | 41132 ft | 506 kts | 110° |
| 2026-05-04 13:42 | 63.34170 | -159.28420 | 41131 ft | 506 kts | 111° |
| 2026-05-04 13:42 | 63.32091 | -159.13481 | 41131 ft | 505 kts | 111° |
| 2026-05-04 13:43 | 63.29996 | -158.98558 | 41126 ft | 505 kts | 111° |
| 2026-05-04 13:43 | 63.27888 | -158.83670 | 41131 ft | 505 kts | 111° |
| 2026-05-04 13:44 | 63.25761 | -158.68783 | 41126 ft | 505 kts | 111° |
| 2026-05-04 13:44 | 63.23625 | -158.53958 | 41123 ft | 505 kts | 111° |
| 2026-05-04 13:45 | 63.21468 | -158.39123 | 41118 ft | 505 kts | 112° |
| 2026-05-04 13:45 | 63.19300 | -158.24340 | 41116 ft | 504 kts | 112° |
| 2026-05-04 13:46 | 63.17118 | -158.09586 | 41111 ft | 504 kts | 112° |
| 2026-05-04 13:46 | 63.14919 | -157.94847 | 41104 ft | 504 kts | 112° |
| 2026-05-04 13:47 | 63.12706 | -157.80135 | 41093 ft | 504 kts | 112° |
| 2026-05-04 13:47 | 63.10481 | -157.65470 | 41089 ft | 504 kts | 112° |
| 2026-05-04 13:48 | 63.08239 | -157.50811 | 41083 ft | 503 kts | 113° |
| 2026-05-04 13:48 | 63.05986 | -157.36196 | 41087 ft | 503 kts | 113° |
| 2026-05-04 13:49 | 63.03716 | -157.21597 | 41092 ft | 503 kts | 113° |
| 2026-05-04 13:49 | 63.01447 | -157.07123 | 41094 ft | 503 kts | 113° |
| 2026-05-04 13:50 | 62.99150 | -156.92583 | 41093 ft | 503 kts | 114° |
| 2026-05-04 13:50 | 62.96821 | -156.77966 | 41087 ft | 503 kts | 114° |
| 2026-05-04 13:51 | 62.94509 | -156.63572 | 41080 ft | 503 kts | 114° |
| 2026-05-04 13:51 | 62.92152 | -156.49010 | 41071 ft | 503 kts | 114° |
| 2026-05-04 13:52 | 62.88630 | -156.27462 | 41061 ft | 502 kts | 114° |
| 2026-05-04 13:53 | 62.86256 | -156.13082 | 41063 ft | 502 kts | 115° |
| 2026-05-04 13:53 | 62.83866 | -155.98714 | 41057 ft | 502 kts | 115° |
| 2026-05-04 13:54 | 62.80254 | -155.77213 | 41062 ft | 502 kts | 115° |
| 2026-05-04 13:55 | 62.76614 | -155.55791 | 41055 ft | 502 kts | 115° |
| 2026-05-04 13:55 | 62.72939 | -155.34409 | 41052 ft | 501 kts | 116° |
| 2026-05-04 13:56 | 62.70473 | -155.20192 | 41051 ft | 501 kts | 116° |
| 2026-05-04 13:57 | 62.66751 | -154.98935 | 41044 ft | 501 kts | 116° |
| 2026-05-04 13:58 | 62.61744 | -154.70704 | 41032 ft | 500 kts | 117° |
| 2026-05-04 13:58 | 62.57955 | -154.49620 | 41031 ft | 500 kts | 117° |
| 2026-05-04 13:59 | 62.55410 | -154.35587 | 41030 ft | 499 kts | 117° |
| 2026-05-04 14:00 | 62.51576 | -154.14628 | 41029 ft | 499 kts | 117° |
| 2026-05-04 14:00 | 62.47681 | -153.93778 | 41029 ft | 497 kts | 119° |
| 2026-05-04 14:01 | 62.44962 | -153.80053 | 41029 ft | 497 kts | 119° |
| 2026-05-04 14:02 | 62.40878 | -153.59491 | 41032 ft | 496 kts | 119° |
| 2026-05-04 14:02 | 62.38147 | -153.45811 | 41038 ft | 496 kts | 119° |
| 2026-05-04 14:03 | 62.35410 | -153.32191 | 41037 ft | 496 kts | 119° |
| 2026-05-04 14:03 | 62.32655 | -153.18574 | 41038 ft | 496 kts | 120° |
| 2026-05-04 14:04 | 62.28529 | -152.98333 | 40783 ft | 491 kts | 120° |
| 2026-05-04 14:04 | 62.27153 | -152.91627 | 40063 ft | 493 kts | 120° |
| 2026-05-04 14:04 | 62.25761 | -152.84877 | 39330 ft | 496 kts | 121° |
| 2026-05-04 14:05 | 62.22960 | -152.71338 | 37763 ft | 497 kts | 122° |
| 2026-05-04 14:05 | 62.22009 | -152.66758 | 37199 ft | 497 kts | 122° |
| 2026-05-04 14:05 | 62.20146 | -152.57817 | 36124 ft | 497 kts | 123° |
| 2026-05-04 14:06 | 62.18735 | -152.51073 | 35308 ft | 496 kts | 124° |
| 2026-05-04 14:06 | 62.17322 | -152.44335 | 34461 ft | 496 kts | 125° |
| 2026-05-04 14:06 | 62.15905 | -152.37616 | 33510 ft | 496 kts | 125° |
| 2026-05-04 14:06 | 62.14477 | -152.30889 | 32475 ft | 498 kts | 124° |
| 2026-05-04 14:07 | 62.13041 | -152.24141 | 31500 ft | 499 kts | 124° |
| 2026-05-04 14:07 | 62.11602 | -152.17395 | 30571 ft | 499 kts | 123° |
| 2026-05-04 14:07 | 62.10164 | -152.10663 | 29570 ft | 499 kts | 123° |
| 2026-05-04 14:07 | 62.08723 | -152.03923 | 28644 ft | 497 kts | 123° |
| 2026-05-04 14:08 | 62.07298 | -151.97262 | 27986 ft | 489 kts | 123° |
| 2026-05-04 14:08 | 62.05892 | -151.90724 | 27350 ft | 483 kts | 123° |
| 2026-05-04 14:08 | 62.04966 | -151.86432 | 26903 ft | 479 kts | 123° |
| 2026-05-04 14:08 | 62.03112 | -151.77877 | 25998 ft | 473 kts | 122° |
| 2026-05-04 14:09 | 62.00812 | -151.67320 | 24896 ft | 465 kts | 122° |
| 2026-05-04 14:09 | 61.99468 | -151.61178 | 24247 ft | 462 kts | 122° |
| 2026-05-04 14:10 | 61.96775 | -151.48916 | 22865 ft | 453 kts | 122° |
| 2026-05-04 14:10 | 61.95447 | -151.42890 | 22220 ft | 447 kts | 122° |
| 2026-05-04 14:10 | 61.94136 | -151.36957 | 21576 ft | 441 kts | 122° |
| 2026-05-04 14:10 | 61.92836 | -151.31092 | 20943 ft | 437 kts | 122° |
| 2026-05-04 14:11 | 61.91544 | -151.25284 | 20301 ft | 432 kts | 121° |
| 2026-05-04 14:11 | 61.88994 | -151.13867 | 19019 ft | 425 kts | 121° |
| 2026-05-04 14:11 | 61.87729 | -151.08229 | 18368 ft | 421 kts | 121° |
| 2026-05-04 14:12 | 61.86478 | -151.02661 | 17656 ft | 417 kts | 121° |
| 2026-05-04 14:12 | 61.85241 | -150.97163 | 16945 ft | 412 kts | 121° |
| 2026-05-04 14:12 | 61.82797 | -150.86357 | 15623 ft | 401 kts | 121° |
| 2026-05-04 14:13 | 61.81596 | -150.81067 | 14983 ft | 396 kts | 121° |
| 2026-05-04 14:13 | 61.80408 | -150.75852 | 14332 ft | 392 kts | 121° |
| 2026-05-04 14:13 | 61.79231 | -150.70695 | 13674 ft | 387 kts | 120° |
| 2026-05-04 14:13 | 61.78068 | -150.65605 | 13001 ft | 382 kts | 121° |
| 2026-05-04 14:14 | 61.76932 | -150.60638 | 12717 ft | 367 kts | 121° |
| 2026-05-04 14:14 | 61.74825 | -150.51435 | 12488 ft | 331 kts | 121° |
| 2026-05-04 14:14 | 61.73840 | -150.47156 | 12378 ft | 316 kts | 121° |
| 2026-05-04 14:15 | 61.71997 | -150.39190 | 12131 ft | 289 kts | 122° |
| 2026-05-04 14:15 | 61.70005 | -150.32320 | 11866 ft | 262 kts | 142° |
| 2026-05-04 14:16 | 61.66849 | -150.29460 | 11304 ft | 245 kts | 177° |
| 2026-05-04 14:16 | 61.65157 | -150.29242 | 11026 ft | 243 kts | 179° |
| 2026-05-04 14:17 | 61.61786 | -150.28922 | 10483 ft | 242 kts | 179° |
| 2026-05-04 14:17 | 61.60111 | -150.28743 | 10200 ft | 241 kts | 179° |
| 2026-05-04 14:17 | 61.56726 | -150.28366 | 9680 ft | 254 kts | 178° |
| 2026-05-04 14:18 | 61.54931 | -150.28162 | 9554 ft | 259 kts | 178° |
| 2026-05-04 14:18 | 61.51344 | -150.27747 | 8727 ft | 257 kts | 178° |
| 2026-05-04 14:19 | 61.47796 | -150.27338 | 8099 ft | 254 kts | 178° |
| 2026-05-04 14:19 | 61.46036 | -150.27134 | 7797 ft | 253 kts | 178° |
| 2026-05-04 14:19 | 61.44289 | -150.26931 | 7489 ft | 251 kts | 177° |
| 2026-05-04 14:19 | 61.42547 | -150.26731 | 7184 ft | 250 kts | 177° |
| 2026-05-04 14:20 | 61.40810 | -150.26531 | 6878 ft | 249 kts | 177° |
| 2026-05-04 14:20 | 61.39085 | -150.26332 | 6562 ft | 248 kts | 177° |
| 2026-05-04 14:20 | 61.37369 | -150.26136 | 6235 ft | 246 kts | 177° |
| 2026-05-04 14:21 | 61.33957 | -150.25752 | 5601 ft | 245 kts | 176° |
| 2026-05-04 14:21 | 61.32262 | -150.25561 | 5279 ft | 244 kts | 176° |
| 2026-05-04 14:21 | 61.30565 | -150.25612 | 4973 ft | 245 kts | 186° |
| 2026-05-04 14:21 | 61.28936 | -150.26662 | 4877 ft | 248 kts | 199° |
| 2026-05-04 14:22 | 61.27356 | -150.28111 | 4878 ft | 248 kts | 201° |
| 2026-05-04 14:22 | 61.25783 | -150.29608 | 4871 ft | 248 kts | 202° |
| 2026-05-04 14:22 | 61.24399 | -150.31655 | 4777 ft | 243 kts | 223° |
| 2026-05-04 14:22 | 61.23619 | -150.34721 | 4678 ft | 243 kts | 252° |
| 2026-05-04 14:23 | 61.23383 | -150.41733 | 4365 ft | 243 kts | 255° |
| 2026-05-04 14:23 | 61.22659 | -150.44718 | 4161 ft | 221 kts | 219° |
| 2026-05-04 14:23 | 61.21371 | -150.46092 | 3935 ft | 205 kts | 187° |
| 2026-05-04 14:24 | 61.19992 | -150.45878 | 3621 ft | 201 kts | 158° |
| 2026-05-04 14:24 | 61.18836 | -150.44294 | 3361 ft | 201 kts | 135° |
| 2026-05-04 14:24 | 61.17923 | -150.42097 | 3084 ft | 202 kts | 126° |
| 2026-05-04 14:24 | 61.17226 | -150.39575 | 2847 ft | 202 kts | 114° |
| 2026-05-04 14:25 | 61.16829 | -150.36774 | 2786 ft | 205 kts | 99° |
| 2026-05-04 14:25 | 61.16766 | -150.31601 | 2793 ft | 178 kts | 93° |
| 2026-05-04 14:25 | 61.16757 | -150.29267 | 2674 ft | 169 kts | 92° |
| 2026-05-04 14:26 | 61.16753 | -150.26930 | 2443 ft | 158 kts | 92° |
| 2026-05-04 14:26 | 61.16754 | -150.24696 | 2222 ft | 151 kts | 91° |
| 2026-05-04 14:26 | 61.16756 | -150.22582 | 2011 ft | 143 kts | 91° |
| 2026-05-04 14:26 | 61.16758 | -150.20534 | 1823 ft | 141 kts | 91° |
| 2026-05-04 14:27 | 61.16760 | -150.18541 | 1612 ft | 135 kts | 90° |
| 2026-05-04 14:27 | 61.16762 | -150.16680 | 1431 ft | 131 kts | 90° |
| 2026-05-04 14:27 | 61.16763 | -150.15457 | 1315 ft | 131 kts | 89° |
| 2026-05-04 14:27 | 61.16766 | -150.13535 | 1116 ft | 132 kts | 89° |
| 2026-05-04 14:28 | 61.16769 | -150.11625 | 908 ft | 134 kts | 88° |
| 2026-05-04 14:28 | 61.16772 | -150.09687 | 704 ft | 135 kts | 88° |
| 2026-05-04 14:28 | 61.16775 | -150.07733 | 514 ft | 136 kts | 89° |
| 2026-05-04 14:28 | 61.16777 | -150.05773 | 323 ft | 136 kts | 89° |
| 2026-05-04 14:29 | 61.16783 | -150.01986 | 135 ft | 111 kts | 90° |
| 2026-05-04 14:29 | 61.16783 | -150.00918 | 133 ft | 0 kts | 88° |
| 2026-05-04 14:30 | 61.16783 | -150.00898 | 134 ft | 5 kts | 88° |
| 2026-05-04 14:30 | 61.16784 | -150.00779 | 134 ft | 12 kts | 89° |
| 2026-05-04 14:30 | 61.16792 | -150.00186 | 124 ft | 27 kts | 91° |
| 2026-05-04 14:31 | 61.16812 | -149.99762 | 124 ft | 30 kts | 73° |
| 2026-05-04 14:31 | 61.17025 | -149.99241 | 137 ft | 19 kts | 36° |
| 2026-05-04 14:32 | 61.17227 | -149.98844 | 121 ft | 22 kts | 39° |
| 2026-05-04 14:32 | 61.17352 | -149.98660 | 116 ft | 22 kts | 33° |
| 2026-05-04 14:32 | 61.17457 | -149.98560 | 114 ft | 10 kts | 26° |
| 2026-05-04 14:32 | 61.17478 | -149.98508 | 115 ft | 0 kts | 62° |
| 2026-05-04 14:33 | 61.17509 | -149.98467 | 118 ft | 0 kts | 78° |
| 2026-05-04 14:33 | 61.17488 | -149.98459 | 117 ft | 0 kts | 78° |